Time;durP1;ratioP1;P1;durP2;ratioP2;P2;SDS_P1;SDS_P2;PMS_P1;PMS_P2;Temp;Humidity;BMP_temperature;BMP_pressure;BME280_temperature;BME280_humidity;BME280_pressure;Samples;Min_cycle;Max_cycle;Signal;HPM_P1;HPM_P2
2021/12/30 00:01:30;;;;;;;342.30;74.67;;;;;;;-0.74;100.00;99623.97;4199752;28;20236;-66
2021/12/30 00:03:57;;;;;;;331.67;71.80;;;;;;;-0.64;100.00;99630.31;4219262;28;20225;-67
2021/12/30 00:06:24;;;;;;;350.47;72.27;;;;;;;-0.60;100.00;99629.19;4214510;28;20659;-64
2021/12/30 00:08:53;;;;;;;365.77;71.67;;;;;;;-0.58;100.00;99629.13;4189815;28;20335;-65
2021/12/30 00:11:20;;;;;;;341.57;73.33;;;;;;;-0.55;100.00;99634.97;4225495;28;21480;-65
2021/12/30 00:13:47;;;;;;;365.37;73.70;;;;;;;-0.55;100.00;99636.75;4193145;28;20327;-67
2021/12/30 00:16:15;;;;;;;320.70;70.93;;;;;;;-0.55;100.00;99639.38;4203514;28;20240;-67
2021/12/30 00:18:43;;;;;;;333.67;74.10;;;;;;;-0.50;100.00;99645.16;4216895;28;20350;-65
2021/12/30 00:21:10;;;;;;;329.70;74.13;;;;;;;-0.47;100.00;99643.19;4199010;28;20244;-65
2021/12/30 00:23:37;;;;;;;366.03;75.63;;;;;;;-0.52;100.00;99642.63;4196869;28;20387;-64
2021/12/30 00:26:03;;;;;;;353.07;75.00;;;;;;;-0.50;100.00;99648.59;4217501;28;20241;-66
2021/12/30 00:28:30;;;;;;;329.93;71.77;;;;;;;-0.50;100.00;99648.59;4213780;28;21086;-67
2021/12/30 00:30:57;;;;;;;357.80;76.23;;;;;;;-0.59;100.00;99643.94;4216270;28;20308;-65
2021/12/30 00:33:24;;;;;;;349.37;75.67;;;;;;;-0.45;100.00;99636.06;4219876;28;22707;-66
2021/12/30 00:35:51;;;;;;;387.43;79.47;;;;;;;-0.53;100.00;99630.50;4227437;28;21883;-65
2021/12/30 00:38:17;;;;;;;380.83;79.20;;;;;;;-0.48;100.00;99638.88;4207195;28;20717;-65
2021/12/30 00:40:44;;;;;;;370.50;75.20;;;;;;;-0.52;100.00;99637.38;4199789;28;25356;-67
2021/12/30 00:43:14;;;;;;;359.90;77.17;;;;;;;-0.44;100.00;99636.94;4203218;28;22695;-65
2021/12/30 00:45:41;;;;;;;359.40;74.23;;;;;;;-0.47;100.00;99652.78;4196148;28;21218;-65
2021/12/30 00:48:08;;;;;;;306.90;70.60;;;;;;;-0.43;100.00;99660.34;4193630;28;20677;-65
2021/12/30 00:50:39;;;;;;;346.90;76.23;;;;;;;-0.39;100.00;99652.34;4182662;28;20318;-67
2021/12/30 00:53:08;;;;;;;316.67;70.10;;;;;;;-0.36;100.00;99639.06;4190148;28;20281;-65
2021/12/30 00:55:34;;;;;;;312.20;70.00;;;;;;;-0.32;100.00;99640.56;4191704;28;20237;-67
2021/12/30 00:58:01;;;;;;;297.00;67.80;;;;;;;-0.31;100.00;99627.38;4186478;28;20705;-68
2021/12/30 01:00:28;;;;;;;303.70;71.90;;;;;;;-0.32;100.00;99624.88;4205635;28;20233;-66
2021/12/30 01:02:55;;;;;;;327.03;72.23;;;;;;;-0.31;100.00;99616.09;4193218;28;24093;-67
2021/12/30 01:05:22;;;;;;;318.00;70.90;;;;;;;-0.21;100.00;99611.97;4200836;28;20273;-65
2021/12/30 01:07:48;;;;;;;322.30;72.03;;;;;;;-0.29;100.00;99622.91;4186415;28;20353;-66
2021/12/30 01:10:17;;;;;;;297.33;70.63;;;;;;;-0.19;100.00;99612.69;4187345;28;20241;-66
2021/12/30 01:12:44;;;;;;;280.77;67.60;;;;;;;-0.17;100.00;99621.28;4196403;28;20400;-66
2021/12/30 01:15:12;;;;;;;282.27;68.67;;;;;;;-0.14;100.00;99617.63;4197659;28;21864;-66
2021/12/30 01:17:48;;;;;;;289.27;70.37;;;;;;;-0.13;100.00;99622.78;4200111;28;20227;-69
2021/12/30 01:20:17;;;;;;;284.20;69.00;;;;;;;-0.11;100.00;99622.69;4202912;28;20236;-68
2021/12/30 01:22:44;;;;;;;301.40;69.87;;;;;;;-0.09;100.00;99621.66;4203089;28;20505;-65
2021/12/30 01:25:11;;;;;;;285.73;67.73;;;;;;;-0.05;100.00;99623.16;4181724;28;23269;-66
2021/12/30 01:27:40;;;;;;;275.50;66.83;;;;;;;-0.08;100.00;99625.09;4196897;28;20304;-68
2021/12/30 01:30:11;;;;;;;291.60;68.67;;;;;;;-0.07;100.00;99622.41;4192238;28;20236;-69
2021/12/30 01:32:38;;;;;;;290.73;67.57;;;;;;;-0.05;100.00;99625.75;4204001;28;20300;-64
2021/12/30 01:35:05;;;;;;;276.77;67.27;;;;;;;0.03;100.00;99624.44;4198467;28;20227;-66
2021/12/30 01:37:32;;;;;;;286.00;68.20;;;;;;;0.03;100.00;99629.66;4196729;28;20384;-67
2021/12/30 01:39:59;;;;;;;294.23;67.10;;;;;;;0.04;100.00;99632.16;4213999;28;20247;-66
2021/12/30 01:42:26;;;;;;;265.53;68.17;;;;;;;0.07;100.00;99628.50;4199768;28;22598;-65
2021/12/30 01:44:52;;;;;;;256.20;65.90;;;;;;;0.13;100.00;99625.50;4190361;28;20229;-65
2021/12/30 01:47:19;;;;;;;256.57;64.47;;;;;;;0.16;100.00;99631.41;4197612;28;20290;-66
2021/12/30 01:49:46;;;;;;;254.67;64.50;;;;;;;0.16;100.00;99636.63;4192592;28;20673;-66
2021/12/30 01:52:12;;;;;;;254.83;65.00;;;;;;;0.20;100.00;99626.78;4198203;28;21308;-64
2021/12/30 01:54:39;;;;;;;274.00;62.27;;;;;;;0.16;100.00;99625.31;4193694;28;21285;-66
2021/12/30 01:57:06;;;;;;;239.47;61.83;;;;;;;0.21;100.00;99633.69;4200063;28;22903;-67
2021/12/30 01:59:33;;;;;;;278.40;65.60;;;;;;;0.24;100.00;99627.44;4212184;28;20290;-70
2021/12/30 02:02:00;;;;;;;278.93;65.60;;;;;;;0.17;100.00;99627.00;4194791;28;20236;-67
2021/12/30 02:04:34;;;;;;;249.60;63.10;;;;;;;0.27;100.00;99627.25;4197559;28;21448;-69
2021/12/30 02:07:00;;;;;;;266.53;65.43;;;;;;;0.25;100.00;99627.31;4194665;28;20241;-68
2021/12/30 02:09:29;;;;;;;249.13;62.07;;;;;;;0.20;100.00;99626.78;4206338;28;20231;-64
2021/12/30 02:11:56;;;;;;;249.10;62.17;;;;;;;0.26;100.00;99623.78;4206234;28;20274;-68
2021/12/30 02:14:22;;;;;;;235.27;61.57;;;;;;;0.26;100.00;99636.88;4197019;28;20235;-67
2021/12/30 02:16:49;;;;;;;247.30;60.87;;;;;;;0.25;100.00;99627.31;4194668;28;21167;-63
2021/12/30 02:19:15;;;;;;;256.80;63.67;;;;;;;0.29;100.00;99633.22;4210622;28;20318;-66
2021/12/30 02:21:42;;;;;;;219.80;61.37;;;;;;;0.32;100.00;99633.00;4180710;28;22075;-66
2021/12/30 02:24:09;;;;;;;215.50;60.10;;;;;;;0.41;100.00;99633.25;4191881;28;20498;-64
2021/12/30 02:26:35;;;;;;;239.17;62.27;;;;;;;0.41;100.00;99641.09;4190526;28;21248;-67
2021/12/30 02:29:02;;;;;;;243.80;62.70;;;;;;;0.44;100.00;99628.75;4204363;28;20232;-68
2021/12/30 02:31:30;;;;;;;246.27;64.20;;;;;;;0.47;100.00;99639.00;4200275;28;20456;-69
2021/12/30 02:33:58;;;;;;;218.43;60.47;;;;;;;0.55;100.00;99632.34;4193864;28;21243;-66
2021/12/30 02:36:28;;;;;;;245.67;64.63;;;;;;;0.56;100.00;99633.16;4212783;28;20236;-69
2021/12/30 02:38:54;;;;;;;235.17;60.33;;;;;;;0.57;100.00;99629.63;4189930;28;20229;-65
2021/12/30 02:41:21;;;;;;;215.10;59.57;;;;;;;0.64;100.00;99628.28;4194783;28;21182;-65
2021/12/30 02:43:48;;;;;;;216.33;61.07;;;;;;;0.64;100.00;99630.91;4191693;28;20227;-67
2021/12/30 02:46:19;;;;;;;212.80;58.60;;;;;;;0.67;100.00;99625.44;4194850;28;20353;-66
2021/12/30 02:48:46;;;;;;;233.83;61.53;;;;;;;0.73;100.00;99625.06;4197007;28;20295;-67
2021/12/30 02:51:13;;;;;;;230.27;62.10;;;;;;;0.69;100.00;99633.22;4192775;28;20362;-67
2021/12/30 02:53:39;;;;;;;207.70;59.90;;;;;;;0.72;100.00;99633.84;4191720;28;20276;-67
2021/12/30 02:56:07;;;;;;;212.10;60.23;;;;;;;0.68;100.00;99629.75;4186446;28;20968;-67
2021/12/30 02:58:34;;;;;;;214.13;60.10;;;;;;;0.71;100.00;99641.81;4195489;28;21562;-67
2021/12/30 03:01:13;;;;;;;212.43;60.37;;;;;;;0.67;100.00;99638.53;4185220;28;21935;-66
2021/12/30 03:03:39;;;;;;;204.63;60.10;;;;;;;0.74;100.00;99636.34;4194055;28;21094;-65
2021/12/30 03:06:08;;;;;;;216.73;59.83;;;;;;;0.83;100.00;99635.75;4184963;28;20241;-64
2021/12/30 03:08:35;;;;;;;217.53;60.17;;;;;;;0.76;100.00;99630.06;4188731;28;20288;-65
2021/12/30 03:11:03;;;;;;;219.27;60.50;;;;;;;0.78;100.00;99630.00;4190454;28;20240;-65
2021/12/30 03:13:31;;;;;;;201.00;57.70;;;;;;;0.76;100.00;99632.69;4181433;28;20339;-67
2021/12/30 03:16:04;;;;;;;205.00;58.83;;;;;;;0.67;100.00;99632.47;4184641;28;22129;-66
2021/12/30 03:18:35;;;;;;;233.37;60.80;;;;;;;0.74;100.00;99629.34;4175259;28;21830;-67
2021/12/30 03:21:04;;;;;;;206.03;58.73;;;;;;;0.65;100.00;99632.56;4174478;28;20283;-66
2021/12/30 03:23:30;;;;;;;219.00;58.70;;;;;;;0.66;100.00;99630.81;4183093;28;20478;-67
2021/12/30 03:25:57;;;;;;;219.40;59.93;;;;;;;0.71;100.00;99634.78;4188228;28;28394;-67
2021/12/30 03:28:24;;;;;;;219.80;59.67;;;;;;;0.73;100.00;99638.16;4197910;28;20247;-66
2021/12/30 03:30:51;;;;;;;229.40;62.53;;;;;;;0.74;100.00;99641.59;4186122;28;20255;-66
2021/12/30 03:33:20;;;;;;;207.43;59.53;;;;;;;0.80;100.00;99647.28;4174577;28;20407;-68
2021/12/30 03:35:47;;;;;;;211.93;58.40;;;;;;;0.72;100.00;99644.31;4186705;28;20304;-66
2021/12/30 03:38:14;;;;;;;202.43;58.50;;;;;;;0.78;100.00;99651.75;4196872;28;20490;-66
2021/12/30 03:40:40;;;;;;;198.67;57.60;;;;;;;0.81;100.00;99653.34;4173839;28;20325;-66
2021/12/30 03:43:07;;;;;;;209.73;59.77;;;;;;;0.81;100.00;99663.81;4185430;28;20228;-68
2021/12/30 03:45:33;;;;;;;203.83;60.50;;;;;;;0.83;100.00;99667.19;4187977;28;20237;-68
2021/12/30 03:48:01;;;;;;;199.83;56.87;;;;;;;0.83;100.00;99665.38;4190803;28;20300;-66
2021/12/30 03:50:29;;;;;;;200.73;59.57;;;;;;;0.75;100.00;99665.06;4189002;28;23373;-65
2021/12/30 03:52:59;;;;;;;184.27;57.17;;;;;;;0.81;100.00;99672.50;4621550;28;20231;-66
2021/12/30 03:55:29;;;;;;;188.77;57.77;;;;;;;0.83;100.00;99675.03;4943820;28;20229;-65
2021/12/30 03:57:56;;;;;;;190.73;57.13;;;;;;;0.87;100.00;99678.28;4246122;28;25900;-66
2021/12/30 04:00:25;;;;;;;208.80;61.10;;;;;;;0.83;100.00;99686.34;4187853;28;20238;-66
2021/12/30 04:02:52;;;;;;;192.17;54.93;;;;;;;0.80;100.00;99694.41;4175274;28;20228;-66
2021/12/30 04:05:20;;;;;;;199.17;59.50;;;;;;;0.78;100.00;99696.28;4197025;28;20241;-68
2021/12/30 04:07:46;;;;;;;190.33;58.80;;;;;;;0.87;100.00;99696.59;4183378;28;20245;-68
2021/12/30 04:10:15;;;;;;;205.87;58.00;;;;;;;0.80;100.00;99699.66;4182399;28;20862;-66
2021/12/30 04:12:43;;;;;;;191.33;58.53;;;;;;;0.82;100.00;99705.63;4175908;28;22143;-66
2021/12/30 04:15:10;;;;;;;193.27;56.83;;;;;;;0.77;100.00;99710.34;4203725;28;20228;-66
2021/12/30 04:17:37;;;;;;;197.07;58.30;;;;;;;0.76;100.00;99707.81;4175794;28;25966;-68
2021/12/30 04:20:08;;;;;;;187.03;58.20;;;;;;;0.83;100.00;99707.28;4195417;28;22078;-67
2021/12/30 04:22:35;;;;;;;196.77;57.83;;;;;;;0.89;100.00;99713.06;4184869;28;21794;-66
2021/12/30 04:25:03;;;;;;;183.80;57.60;;;;;;;0.93;100.00;99704.91;4195261;28;22344;-67
2021/12/30 04:27:29;;;;;;;178.60;55.50;;;;;;;0.90;100.00;99704.28;4196488;28;22672;-66
2021/12/30 04:29:56;;;;;;;186.97;55.10;;;;;;;0.99;100.00;99708.91;4182417;28;20225;-67
2021/12/30 04:32:22;;;;;;;197.13;58.47;;;;;;;1.01;100.00;99707.88;4191494;28;23106;-66
2021/12/30 04:34:49;;;;;;;181.33;57.07;;;;;;;1.02;100.00;99700.84;4187965;28;20232;-64
2021/12/30 04:37:16;;;;;;;177.40;55.93;;;;;;;1.04;100.00;99701.56;4186479;28;20233;-66
2021/12/30 04:39:42;;;;;;;180.53;57.43;;;;;;;1.05;100.00;99698.88;4180729;28;20232;-65
2021/12/30 04:42:09;;;;;;;191.70;58.53;;;;;;;1.01;100.00;99692.16;4195090;28;21971;-69
2021/12/30 04:44:36;;;;;;;166.30;56.63;;;;;;;1.09;100.00;99699.47;4188104;28;21265;-66
2021/12/30 04:47:02;;;;;;;178.40;57.27;;;;;;;1.12;100.00;99707.13;4185679;28;20266;-67
2021/12/30 04:49:29;;;;;;;177.23;54.83;;;;;;;1.14;100.00;99697.38;4181776;28;20236;-66
2021/12/30 04:51:55;;;;;;;180.10;56.47;;;;;;;1.18;100.00;99698.88;4178980;28;20234;-66
2021/12/30 04:54:22;;;;;;;177.90;56.87;;;;;;;1.13;100.00;99698.34;4189080;28;20241;-67
2021/12/30 04:56:50;;;;;;;175.77;55.80;;;;;;;1.21;100.00;99692.56;4189610;28;20244;-66
2021/12/30 04:59:17;;;;;;;187.73;57.90;;;;;;;1.20;100.00;99691.75;4193725;28;20228;-66
2021/12/30 05:01:45;;;;;;;188.70;58.00;;;;;;;1.18;100.00;99690.19;4178464;28;20316;-66
2021/12/30 05:04:12;;;;;;;206.10;59.07;;;;;;;1.22;100.00;99695.09;4179109;28;21515;-65
2021/12/30 05:06:38;;;;;;;175.03;54.77;;;;;;;1.24;100.00;99692.34;4198251;28;20232;-66
2021/12/30 05:09:08;;;;;;;191.77;58.80;;;;;;;1.22;100.00;99689.03;4191763;28;20237;-67
2021/12/30 05:11:36;;;;;;;174.37;57.73;;;;;;;1.21;100.00;99693.41;4199496;28;20270;-70
2021/12/30 05:14:03;;;;;;;202.83;59.27;;;;;;;1.15;100.00;99698.25;4186239;28;20232;-68
